sensor_id;sensor_type;location;lat;lon;timestamp;temperature;humidity
19878;DHT22;10101;52.204;9.910;2023-10-08T00:02:23;13.60;1.00
19878;DHT22;10101;52.204;9.910;2023-10-08T00:04:52;13.50;99.90
19878;DHT22;10101;52.204;9.910;2023-10-08T00:07:20;13.30;1.00
19878;DHT22;10101;52.204;9.910;2023-10-08T00:09:50;13.20;65.30
19878;DHT22;10101;52.204;9.910;2023-10-08T00:12:18;13.00;1.00
19878;DHT22;10101;52.204;9.910;2023-10-08T00:14:46;12.90;99.90
19878;DHT22;10101;52.204;9.910;2023-10-08T00:17:15;13.00;99.90
19878;DHT22;10101;52.204;9.910;2023-10-08T00:19:42;13.00;1.00
19878;DHT22;10101;52.204;9.910;2023-10-08T00:22:09;12.90;99.90
19878;DHT22;10101;52.204;9.910;2023-10-08T00:24:38;12.80;1.00
19878;DHT22;10101;52.204;9.910;2023-10-08T00:27:09;12.80;99.90
19878;DHT22;10101;52.204;9.910;2023-10-08T00:29:36;12.80;1.00
19878;DHT22;10101;52.204;9.910;2023-10-08T00:32:06;12.80;1.00
19878;DHT22;10101;52.204;9.910;2023-10-08T00:34:38;12.70;53.40
19878;DHT22;10101;52.204;9.910;2023-10-08T00:37:09;12.80;1.00
19878;DHT22;10101;52.204;9.910;2023-10-08T00:39:36;12.80;99.90
19878;DHT22;10101;52.204;9.910;2023-10-08T00:42:06;12.70;99.90
19878;DHT22;10101;52.204;9.910;2023-10-08T00:44:35;12.60;1.00
19878;DHT22;10101;52.204;9.910;2023-10-08T00:47:13;12.70;99.90
19878;DHT22;10101;52.204;9.910;2023-10-08T00:49:40;12.80;99.90
19878;DHT22;10101;52.204;9.910;2023-10-08T00:52:19;12.60;99.90
19878;DHT22;10101;52.204;9.910;2023-10-08T00:54:54;12.50;1.00
19878;DHT22;10101;52.204;9.910;2023-10-08T00:57:35;12.60;1.00
19878;DHT22;10101;52.204;9.910;2023-10-08T01:00:05;12.60;1.00
19878;DHT22;10101;52.204;9.910;2023-10-08T01:02:40;12.50;46.40
19878;DHT22;10101;52.204;9.910;2023-10-08T01:05:15;12.60;99.90
19878;DHT22;10101;52.204;9.910;2023-10-08T01:07:46;12.50;99.90
19878;DHT22;10101;52.204;9.910;2023-10-08T01:10:16;12.40;99.90
19878;DHT22;10101;52.204;9.910;2023-10-08T01:12:45;12.30;99.90
19878;DHT22;10101;52.204;9.910;2023-10-08T01:15:30;12.30;99.90
19878;DHT22;10101;52.204;9.910;2023-10-08T01:18:01;12.40;99.90
19878;DHT22;10101;52.204;9.910;2023-10-08T01:20:30;12.30;99.90
19878;DHT22;10101;52.204;9.910;2023-10-08T01:23:04;12.10;99.90
19878;DHT22;10101;52.204;9.910;2023-10-08T01:25:35;12.00;99.90
19878;DHT22;10101;52.204;9.910;2023-10-08T01:28:02;11.90;99.90
19878;DHT22;10101;52.204;9.910;2023-10-08T01:30:34;11.90;99.90
19878;DHT22;10101;52.204;9.910;2023-10-08T01:33:07;11.60;99.90
19878;DHT22;10101;52.204;9.910;2023-10-08T01:35:37;11.40;99.90
19878;DHT22;10101;52.204;9.910;2023-10-08T01:38:05;11.40;99.90
19878;DHT22;10101;52.204;9.910;2023-10-08T01:40:34;11.10;99.90
19878;DHT22;10101;52.204;9.910;2023-10-08T01:43:01;10.80;99.90
19878;DHT22;10101;52.204;9.910;2023-10-08T01:45:29;10.70;99.90
19878;DHT22;10101;52.204;9.910;2023-10-08T01:47:57;10.80;99.90
19878;DHT22;10101;52.204;9.910;2023-10-08T01:50:24;10.70;16.80
19878;DHT22;10101;52.204;9.910;2023-10-08T01:52:51;10.60;1.00
19878;DHT22;10101;52.204;9.910;2023-10-08T01:55:19;10.50;1.00
19878;DHT22;10101;52.204;9.910;2023-10-08T01:57:49;10.60;1.00
19878;DHT22;10101;52.204;9.910;2023-10-08T02:00:17;10.70;1.00
19878;DHT22;10101;52.204;9.910;2023-10-08T02:02:45;10.80;1.00
19878;DHT22;10101;52.204;9.910;2023-10-08T02:05:12;10.80;1.00
19878;DHT22;10101;52.204;9.910;2023-10-08T02:07:40;10.70;99.90
19878;DHT22;10101;52.204;9.910;2023-10-08T02:10:08;10.70;99.90
19878;DHT22;10101;52.204;9.910;2023-10-08T02:12:37;10.60;99.90
19878;DHT22;10101;52.204;9.910;2023-10-08T02:15:05;10.60;1.00
19878;DHT22;10101;52.204;9.910;2023-10-08T02:17:32;10.60;30.60
19878;DHT22;10101;52.204;9.910;2023-10-08T02:19:59;10.80;99.90
19878;DHT22;10101;52.204;9.910;2023-10-08T02:22:26;11.00;1.00
19878;DHT22;10101;52.204;9.910;2023-10-08T02:24:53;11.00;1.00
19878;DHT22;10101;52.204;9.910;2023-10-08T02:27:26;11.00;99.90
19878;DHT22;10101;52.204;9.910;2023-10-08T02:29:54;11.10;1.00
19878;DHT22;10101;52.204;9.910;2023-10-08T02:32:21;11.00;1.00
19878;DHT22;10101;52.204;9.910;2023-10-08T02:34:49;11.10;99.90
19878;DHT22;10101;52.204;9.910;2023-10-08T02:37:16;11.10;1.00
19878;DHT22;10101;52.204;9.910;2023-10-08T02:39:42;11.10;1.00
19878;DHT22;10101;52.204;9.910;2023-10-08T02:42:10;11.10;97.10
19878;DHT22;10101;52.204;9.910;2023-10-08T02:44:39;11.10;99.90
19878;DHT22;10101;52.204;9.910;2023-10-08T02:47:09;11.10;99.90
19878;DHT22;10101;52.204;9.910;2023-10-08T02:49:37;11.10;99.90
19878;DHT22;10101;52.204;9.910;2023-10-08T02:52:06;11.10;99.90
19878;DHT22;10101;52.204;9.910;2023-10-08T02:54:34;11.00;99.90
19878;DHT22;10101;52.204;9.910;2023-10-08T02:57:03;11.00;99.90
19878;DHT22;10101;52.204;9.910;2023-10-08T02:59:35;11.00;99.90
19878;DHT22;10101;52.204;9.910;2023-10-08T03:02:08;11.00;99.90
19878;DHT22;10101;52.204;9.910;2023-10-08T03:04:40;10.90;99.90
19878;DHT22;10101;52.204;9.910;2023-10-08T03:07:08;10.90;99.90
19878;DHT22;10101;52.204;9.910;2023-10-08T03:09:37;11.00;99.90
19878;DHT22;10101;52.204;9.910;2023-10-08T03:12:08;11.00;99.90
19878;DHT22;10101;52.204;9.910;2023-10-08T03:14:35;11.10;99.90
19878;DHT22;10101;52.204;9.910;2023-10-08T03:17:15;11.20;99.90
19878;DHT22;10101;52.204;9.910;2023-10-08T03:19:46;11.20;99.90
19878;DHT22;10101;52.204;9.910;2023-10-08T03:22:13;11.10;99.90
19878;DHT22;10101;52.204;9.910;2023-10-08T03:24:44;11.10;99.90
19878;DHT22;10101;52.204;9.910;2023-10-08T03:27:14;11.20;99.90
19878;DHT22;10101;52.204;9.910;2023-10-08T03:29:46;11.20;99.90
19878;DHT22;10101;52.204;9.910;2023-10-08T03:32:14;11.10;99.90
19878;DHT22;10101;52.204;9.910;2023-10-08T03:34:45;11.20;99.90
19878;DHT22;10101;52.204;9.910;2023-10-08T03:37:13;11.10;99.90
19878;DHT22;10101;52.204;9.910;2023-10-08T03:39:46;11.20;99.90
19878;DHT22;10101;52.204;9.910;2023-10-08T03:42:26;11.20;99.90
19878;DHT22;10101;52.204;9.910;2023-10-08T03:44:59;11.20;99.90
19878;DHT22;10101;52.204;9.910;2023-10-08T03:47:37;11.20;99.90
19878;DHT22;10101;52.204;9.910;2023-10-08T03:50:05;10.90;99.90
19878;DHT22;10101;52.204;9.910;2023-10-08T03:52:33;11.10;99.90
19878;DHT22;10101;52.204;9.910;2023-10-08T03:55:03;11.20;99.90
19878;DHT22;10101;52.204;9.910;2023-10-08T03:57:39;11.10;99.90
19878;DHT22;10101;52.204;9.910;2023-10-08T04:00:11;11.10;99.90
19878;DHT22;10101;52.204;9.910;2023-10-08T04:02:44;11.10;99.90
19878;DHT22;10101;52.204;9.910;2023-10-08T04:05:20;11.20;99.90
19878;DHT22;10101;52.204;9.910;2023-10-08T04:07:52;11.10;99.90
19878;DHT22;10101;52.204;9.910;2023-10-08T04:10:42;10.90;99.90
19878;DHT22;10101;52.204;9.910;2023-10-08T04:13:27;11.00;99.90
19878;DHT22;10101;52.204;9.910;2023-10-08T04:15:56;11.10;99.90
19878;DHT22;10101;52.204;9.910;2023-10-08T04:18:24;11.10;99.90
19878;DHT22;10101;52.204;9.910;2023-10-08T04:20:53;10.80;99.90
19878;DHT22;10101;52.204;9.910;2023-10-08T04:23:30;10.70;99.90
19878;DHT22;10101;52.204;9.910;2023-10-08T04:25:56;10.70;99.90
19878;DHT22;10101;52.204;9.910;2023-10-08T04:28:24;10.80;99.90
19878;DHT22;10101;52.204;9.910;2023-10-08T04:30:54;10.70;99.90
19878;DHT22;10101;52.204;9.910;2023-10-08T04:33:28;10.70;99.90
19878;DHT22;10101;52.204;9.910;2023-10-08T04:35:59;10.70;99.90
19878;DHT22;10101;52.204;9.910;2023-10-08T04:38:28;10.80;99.90
19878;DHT22;10101;52.204;9.910;2023-10-08T04:40:56;10.70;99.90
19878;DHT22;10101;52.204;9.910;2023-10-08T04:43:27;10.70;99.90
19878;DHT22;10101;52.204;9.910;2023-10-08T04:45:56;10.90;99.90
19878;DHT22;10101;52.204;9.910;2023-10-08T04:48:23;10.70;99.90
19878;DHT22;10101;52.204;9.910;2023-10-08T04:50:53;10.80;99.90
19878;DHT22;10101;52.204;9.910;2023-10-08T04:53:25;10.90;99.90
19878;DHT22;10101;52.204;9.910;2023-10-08T04:55:59;10.80;99.90
19878;DHT22;10101;52.204;9.910;2023-10-08T04:58:30;10.70;99.90
19878;DHT22;10101;52.204;9.910;2023-10-08T05:01:03;10.80;99.90
19878;DHT22;10101;52.204;9.910;2023-10-08T05:03:44;10.90;99.90
19878;DHT22;10101;52.204;9.910;2023-10-08T05:06:34;11.00;99.90
19878;DHT22;10101;52.204;9.910;2023-10-08T05:09:26;10.80;99.90
19878;DHT22;10101;52.204;9.910;2023-10-08T05:12:05;10.90;99.90
19878;DHT22;10101;52.204;9.910;2023-10-08T05:14:36;10.90;99.90
19878;DHT22;10101;52.204;9.910;2023-10-08T05:17:11;10.90;99.90
19878;DHT22;10101;52.204;9.910;2023-10-08T05:19:48;10.90;99.90
19878;DHT22;10101;52.204;9.910;2023-10-08T05:22:27;11.00;99.90
19878;DHT22;10101;52.204;9.910;2023-10-08T05:25:10;10.90;99.90
19878;DHT22;10101;52.204;9.910;2023-10-08T05:27:52;11.00;99.90
19878;DHT22;10101;52.204;9.910;2023-10-08T05:30:34;10.90;99.90
19878;DHT22;10101;52.204;9.910;2023-10-08T05:33:05;10.80;99.90
19878;DHT22;10101;52.204;9.910;2023-10-08T05:35:51;10.90;99.90
19878;DHT22;10101;52.204;9.910;2023-10-08T05:38:30;10.80;99.90
19878;DHT22;10101;52.204;9.910;2023-10-08T05:41:24;10.80;99.90
19878;DHT22;10101;52.204;9.910;2023-10-08T05:43:54;10.70;99.90
19878;DHT22;10101;52.204;9.910;2023-10-08T05:46:38;10.80;99.90
19878;DHT22;10101;52.204;9.910;2023-10-08T05:49:15;10.80;99.90
19878;DHT22;10101;52.204;9.910;2023-10-08T05:52:07;10.80;99.90
19878;DHT22;10101;52.204;9.910;2023-10-08T05:55:05;10.70;99.90
19878;DHT22;10101;52.204;9.910;2023-10-08T05:57:59;10.80;99.90
19878;DHT22;10101;52.204;9.910;2023-10-08T06:00:39;10.90;99.90
19878;DHT22;10101;52.204;9.910;2023-10-08T06:03:13;10.90;99.90
19878;DHT22;10101;52.204;9.910;2023-10-08T06:06:01;10.80;99.90
19878;DHT22;10101;52.204;9.910;2023-10-08T06:08:45;10.80;99.90
19878;DHT22;10101;52.204;9.910;2023-10-08T06:11:35;10.80;99.90
19878;DHT22;10101;52.204;9.910;2023-10-08T06:14:10;10.80;99.90
19878;DHT22;10101;52.204;9.910;2023-10-08T06:16:43;10.80;99.90
19878;DHT22;10101;52.204;9.910;2023-10-08T06:19:27;10.90;99.90
19878;DHT22;10101;52.204;9.910;2023-10-08T06:21:53;11.10;99.90
19878;DHT22;10101;52.204;9.910;2023-10-08T06:24:21;10.90;99.90
19878;DHT22;10101;52.204;9.910;2023-10-08T06:26:50;10.90;99.90
19878;DHT22;10101;52.204;9.910;2023-10-08T06:29:17;10.90;99.90
19878;DHT22;10101;52.204;9.910;2023-10-08T06:31:53;10.90;99.90
19878;DHT22;10101;52.204;9.910;2023-10-08T06:34:23;11.00;99.90
19878;DHT22;10101;52.204;9.910;2023-10-08T06:36:54;11.10;99.90
19878;DHT22;10101;52.204;9.910;2023-10-08T06:39:23;11.10;99.90
19878;DHT22;10101;52.204;9.910;2023-10-08T06:42:00;11.20;99.90
19878;DHT22;10101;52.204;9.910;2023-10-08T06:44:28;11.10;99.90
19878;DHT22;10101;52.204;9.910;2023-10-08T06:46:55;11.10;99.90
19878;DHT22;10101;52.204;9.910;2023-10-08T06:49:24;11.20;99.90
19878;DHT22;10101;52.204;9.910;2023-10-08T06:51:51;11.20;99.90
19878;DHT22;10101;52.204;9.910;2023-10-08T06:54:19;11.20;99.90
19878;DHT22;10101;52.204;9.910;2023-10-08T06:56:50;11.20;99.90
19878;DHT22;10101;52.204;9.910;2023-10-08T06:59:20;11.30;99.90
19878;DHT22;10101;52.204;9.910;2023-10-08T07:01:49;11.40;99.90
19878;DHT22;10101;52.204;9.910;2023-10-08T07:04:17;11.40;99.90
19878;DHT22;10101;52.204;9.910;2023-10-08T07:06:45;11.40;99.90
19878;DHT22;10101;52.204;9.910;2023-10-08T07:09:13;11.60;99.90
19878;DHT22;10101;52.204;9.910;2023-10-08T07:11:51;11.50;99.90
19878;DHT22;10101;52.204;9.910;2023-10-08T07:14:22;11.60;99.90
19878;DHT22;10101;52.204;9.910;2023-10-08T07:16:52;11.60;99.90
19878;DHT22;10101;52.204;9.910;2023-10-08T07:19:20;11.50;99.90
19878;DHT22;10101;52.204;9.910;2023-10-08T07:21:49;11.50;99.90
19878;DHT22;10101;52.204;9.910;2023-10-08T07:24:20;11.60;99.90
19878;DHT22;10101;52.204;9.910;2023-10-08T07:26:48;11.50;99.90
19878;DHT22;10101;52.204;9.910;2023-10-08T07:29:16;11.40;99.90
19878;DHT22;10101;52.204;9.910;2023-10-08T07:31:46;11.60;99.90
19878;DHT22;10101;52.204;9.910;2023-10-08T07:34:16;11.70;99.90
19878;DHT22;10101;52.204;9.910;2023-10-08T07:36:44;11.80;99.90
19878;DHT22;10101;52.204;9.910;2023-10-08T07:39:12;12.00;99.90
19878;DHT22;10101;52.204;9.910;2023-10-08T07:41:50;12.00;99.90
19878;DHT22;10101;52.204;9.910;2023-10-08T07:44:19;12.00;99.90
19878;DHT22;10101;52.204;9.910;2023-10-08T07:46:48;12.10;99.90
19878;DHT22;10101;52.204;9.910;2023-10-08T07:49:16;11.90;99.90
19878;DHT22;10101;52.204;9.910;2023-10-08T07:51:43;11.90;99.90
19878;DHT22;10101;52.204;9.910;2023-10-08T07:54:17;11.90;99.90
19878;DHT22;10101;52.204;9.910;2023-10-08T07:56:45;12.00;99.90
19878;DHT22;10101;52.204;9.910;2023-10-08T07:59:12;12.00;99.90
19878;DHT22;10101;52.204;9.910;2023-10-08T08:01:40;12.00;99.90
19878;DHT22;10101;52.204;9.910;2023-10-08T08:04:09;12.00;99.90
19878;DHT22;10101;52.204;9.910;2023-10-08T08:06:40;12.10;99.90
19878;DHT22;10101;52.204;9.910;2023-10-08T08:09:07;12.20;99.90
19878;DHT22;10101;52.204;9.910;2023-10-08T08:11:43;12.10;99.90
19878;DHT22;10101;52.204;9.910;2023-10-08T08:14:12;12.20;99.90
19878;DHT22;10101;52.204;9.910;2023-10-08T08:16:42;12.20;1.00
19878;DHT22;10101;52.204;9.910;2023-10-08T08:19:13;12.10;99.90
19878;DHT22;10101;52.204;9.910;2023-10-08T08:21:41;12.20;99.90
19878;DHT22;10101;52.204;9.910;2023-10-08T08:24:11;12.20;99.90
19878;DHT22;10101;52.204;9.910;2023-10-08T08:26:38;12.20;99.90
19878;DHT22;10101;52.204;9.910;2023-10-08T08:29:10;12.20;99.90
19878;DHT22;10101;52.204;9.910;2023-10-08T08:31:41;12.30;1.00
19878;DHT22;10101;52.204;9.910;2023-10-08T08:34:13;12.50;99.90
19878;DHT22;10101;52.204;9.910;2023-10-08T08:36:46;12.60;1.00
19878;DHT22;10101;52.204;9.910;2023-10-08T08:39:15;12.60;99.90
19878;DHT22;10101;52.204;9.910;2023-10-08T08:41:59;12.50;99.90
19878;DHT22;10101;52.204;9.910;2023-10-08T08:44:28;12.60;97.60
19878;DHT22;10101;52.204;9.910;2023-10-08T08:46:58;12.60;1.00
19878;DHT22;10101;52.204;9.910;2023-10-08T08:49:28;12.70;99.10
19878;DHT22;10101;52.204;9.910;2023-10-08T08:51:56;12.70;1.00
19878;DHT22;10101;52.204;9.910;2023-10-08T08:54:26;12.70;1.00
19878;DHT22;10101;52.204;9.910;2023-10-08T08:56:56;12.80;1.00
19878;DHT22;10101;52.204;9.910;2023-10-08T08:59:26;12.80;99.90
19878;DHT22;10101;52.204;9.910;2023-10-08T09:01:57;12.80;28.70
19878;DHT22;10101;52.204;9.910;2023-10-08T09:04:30;13.00;1.00
19878;DHT22;10101;52.204;9.910;2023-10-08T09:06:59;12.70;99.90
19878;DHT22;10101;52.204;9.910;2023-10-08T09:09:31;12.80;99.90
19878;DHT22;10101;52.204;9.910;2023-10-08T09:11:58;12.80;1.00
19878;DHT22;10101;52.204;9.910;2023-10-08T09:14:26;12.70;1.00
19878;DHT22;10101;52.204;9.910;2023-10-08T09:16:55;12.90;1.00
19878;DHT22;10101;52.204;9.910;2023-10-08T09:19:24;12.90;99.90
19878;DHT22;10101;52.204;9.910;2023-10-08T09:22:03;13.00;1.00
19878;DHT22;10101;52.204;9.910;2023-10-08T09:24:31;13.10;99.90
19878;DHT22;10101;52.204;9.910;2023-10-08T09:26:59;13.00;30.70
19878;DHT22;10101;52.204;9.910;2023-10-08T09:29:27;13.10;1.00
19878;DHT22;10101;52.204;9.910;2023-10-08T09:31:54;13.20;31.10
19878;DHT22;10101;52.204;9.910;2023-10-08T09:34:24;13.20;99.90
19878;DHT22;10101;52.204;9.910;2023-10-08T09:36:52;13.20;1.00
19878;DHT22;10101;52.204;9.910;2023-10-08T09:39:23;13.30;1.00
19878;DHT22;10101;52.204;9.910;2023-10-08T09:41:53;13.40;99.90
19878;DHT22;10101;52.204;9.910;2023-10-08T09:44:20;13.50;99.90
19878;DHT22;10101;52.204;9.910;2023-10-08T09:46:52;13.50;99.90
19878;DHT22;10101;52.204;9.910;2023-10-08T09:49:25;13.80;99.90
19878;DHT22;10101;52.204;9.910;2023-10-08T09:51:56;13.70;1.00
19878;DHT22;10101;52.204;9.910;2023-10-08T09:54:28;13.70;1.00
19878;DHT22;10101;52.204;9.910;2023-10-08T09:56:59;13.70;1.00
19878;DHT22;10101;52.204;9.910;2023-10-08T09:59:29;13.50;1.00
19878;DHT22;10101;52.204;9.910;2023-10-08T10:01:57;13.60;1.00
19878;DHT22;10101;52.204;9.910;2023-10-08T10:04:25;13.60;1.00
19878;DHT22;10101;52.204;9.910;2023-10-08T10:06:54;13.70;99.90
19878;DHT22;10101;52.204;9.910;2023-10-08T10:09:25;13.80;1.00
19878;DHT22;10101;52.204;9.910;2023-10-08T10:11:54;14.20;99.90
19878;DHT22;10101;52.204;9.910;2023-10-08T10:14:23;14.30;1.00
19878;DHT22;10101;52.204;9.910;2023-10-08T10:17:08;14.70;99.90
19878;DHT22;10101;52.204;9.910;2023-10-08T10:19:36;14.90;99.90
19878;DHT22;10101;52.204;9.910;2023-10-08T10:22:03;14.80;99.90
19878;DHT22;10101;52.204;9.910;2023-10-08T10:24:35;14.30;1.00
19878;DHT22;10101;52.204;9.910;2023-10-08T10:27:13;13.90;99.90
19878;DHT22;10101;52.204;9.910;2023-10-08T10:29:41;13.90;1.00
19878;DHT22;10101;52.204;9.910;2023-10-08T10:32:11;14.10;1.00
19878;DHT22;10101;52.204;9.910;2023-10-08T10:34:41;14.90;99.90
19878;DHT22;10101;52.204;9.910;2023-10-08T10:37:08;14.80;1.00
19878;DHT22;10101;52.204;9.910;2023-10-08T10:39:52;14.60;1.00
19878;DHT22;10101;52.204;9.910;2023-10-08T10:42:21;14.30;1.00
19878;DHT22;10101;52.204;9.910;2023-10-08T10:44:49;14.40;99.90
19878;DHT22;10101;52.204;9.910;2023-10-08T10:47:17;14.50;43.00
19878;DHT22;10101;52.204;9.910;2023-10-08T10:49:54;14.50;12.80
19878;DHT22;10101;52.204;9.910;2023-10-08T10:52:36;14.50;99.90
19878;DHT22;10101;52.204;9.910;2023-10-08T10:55:14;14.40;96.00
19878;DHT22;10101;52.204;9.910;2023-10-08T10:57:57;14.30;99.90
19878;DHT22;10101;52.204;9.910;2023-10-08T11:00:31;14.40;99.90
19878;DHT22;10101;52.204;9.910;2023-10-08T11:03:13;15.10;1.00
19878;DHT22;10101;52.204;9.910;2023-10-08T11:05:45;15.00;1.00
19878;DHT22;10101;52.204;9.910;2023-10-08T11:08:16;14.90;99.90
19878;DHT22;10101;52.204;9.910;2023-10-08T11:10:47;15.00;99.90
19878;DHT22;10101;52.204;9.910;2023-10-08T11:13:18;15.30;1.00
19878;DHT22;10101;52.204;9.910;2023-10-08T11:15:50;15.70;1.00
19878;DHT22;10101;52.204;9.910;2023-10-08T11:18:19;15.60;99.90
19878;DHT22;10101;52.204;9.910;2023-10-08T11:20:46;15.90;99.90
19878;DHT22;10101;52.204;9.910;2023-10-08T11:23:31;15.90;1.00
19878;DHT22;10101;52.204;9.910;2023-10-08T11:26:01;15.90;99.90
19878;DHT22;10101;52.204;9.910;2023-10-08T11:28:29;15.60;99.90
19878;DHT22;10101;52.204;9.910;2023-10-08T11:30:59;15.70;99.10
19878;DHT22;10101;52.204;9.910;2023-10-08T11:33:34;15.70;99.90
19878;DHT22;10101;52.204;9.910;2023-10-08T11:36:02;15.90;23.40
19878;DHT22;10101;52.204;9.910;2023-10-08T11:38:38;15.60;99.90
19878;DHT22;10101;52.204;9.910;2023-10-08T11:41:13;15.20;1.00
19878;DHT22;10101;52.204;9.910;2023-10-08T11:43:47;15.20;1.00
19878;DHT22;10101;52.204;9.910;2023-10-08T11:46:20;15.10;1.00
19878;DHT22;10101;52.204;9.910;2023-10-08T11:48:47;15.40;99.90
19878;DHT22;10101;52.204;9.910;2023-10-08T11:51:16;15.50;99.90
19878;DHT22;10101;52.204;9.910;2023-10-08T11:53:43;15.60;99.90
19878;DHT22;10101;52.204;9.910;2023-10-08T11:56:11;15.70;99.90
19878;DHT22;10101;52.204;9.910;2023-10-08T11:58:40;15.60;99.90
19878;DHT22;10101;52.204;9.910;2023-10-08T12:01:10;15.40;99.90
19878;DHT22;10101;52.204;9.910;2023-10-08T12:03:41;15.50;99.90
19878;DHT22;10101;52.204;9.910;2023-10-08T12:06:09;15.50;99.90
19878;DHT22;10101;52.204;9.910;2023-10-08T12:08:41;15.30;1.00
19878;DHT22;10101;52.204;9.910;2023-10-08T12:11:11;15.40;1.00
19878;DHT22;10101;52.204;9.910;2023-10-08T12:13:40;15.80;99.90
19878;DHT22;10101;52.204;9.910;2023-10-08T12:16:11;15.90;99.90
19878;DHT22;10101;52.204;9.910;2023-10-08T12:18:44;15.90;99.90
19878;DHT22;10101;52.204;9.910;2023-10-08T12:21:14;15.80;1.00
19878;DHT22;10101;52.204;9.910;2023-10-08T12:23:41;15.70;1.00
19878;DHT22;10101;52.204;9.910;2023-10-08T12:26:10;15.70;1.00
19878;DHT22;10101;52.204;9.910;2023-10-08T12:28:42;15.60;99.90
19878;DHT22;10101;52.204;9.910;2023-10-08T12:31:11;15.40;99.90
19878;DHT22;10101;52.204;9.910;2023-10-08T12:33:38;15.50;1.00
19878;DHT22;10101;52.204;9.910;2023-10-08T12:36:05;15.50;99.90
19878;DHT22;10101;52.204;9.910;2023-10-08T12:38:37;15.40;99.90
19878;DHT22;10101;52.204;9.910;2023-10-08T12:41:04;15.50;99.90
19878;DHT22;10101;52.204;9.910;2023-10-08T12:43:38;15.50;99.90
19878;DHT22;10101;52.204;9.910;2023-10-08T12:46:09;15.50;99.90
19878;DHT22;10101;52.204;9.910;2023-10-08T12:48:44;15.40;99.90
19878;DHT22;10101;52.204;9.910;2023-10-08T12:51:16;15.20;99.90
19878;DHT22;10101;52.204;9.910;2023-10-08T12:53:43;15.10;1.00
19878;DHT22;10101;52.204;9.910;2023-10-08T12:56:17;15.20;1.00
19878;DHT22;10101;52.204;9.910;2023-10-08T12:58:47;15.20;99.90
19878;DHT22;10101;52.204;9.910;2023-10-08T13:01:16;15.00;1.00
19878;DHT22;10101;52.204;9.910;2023-10-08T13:03:44;15.00;1.00
19878;DHT22;10101;52.204;9.910;2023-10-08T13:06:14;15.20;99.90
19878;DHT22;10101;52.204;9.910;2023-10-08T13:08:47;15.10;1.00
19878;DHT22;10101;52.204;9.910;2023-10-08T13:11:14;15.10;1.00
19878;DHT22;10101;52.204;9.910;2023-10-08T13:13:41;15.10;99.90
19878;DHT22;10101;52.204;9.910;2023-10-08T13:16:10;14.90;99.90
19878;DHT22;10101;52.204;9.910;2023-10-08T13:18:38;15.10;99.90
19878;DHT22;10101;52.204;9.910;2023-10-08T13:21:08;15.00;99.90
19878;DHT22;10101;52.204;9.910;2023-10-08T13:23:36;14.90;1.00
19878;DHT22;10101;52.204;9.910;2023-10-08T13:26:02;15.00;99.90
19878;DHT22;10101;52.204;9.910;2023-10-08T13:28:32;14.90;99.90
19878;DHT22;10101;52.204;9.910;2023-10-08T13:31:00;14.80;99.90
19878;DHT22;10101;52.204;9.910;2023-10-08T13:33:32;14.80;1.00
19878;DHT22;10101;52.204;9.910;2023-10-08T13:36:00;15.00;99.90
19878;DHT22;10101;52.204;9.910;2023-10-08T13:38:26;15.10;99.90
19878;DHT22;10101;52.204;9.910;2023-10-08T13:40:53;15.10;1.00
19878;DHT22;10101;52.204;9.910;2023-10-08T13:43:30;15.10;99.90
19878;DHT22;10101;52.204;9.910;2023-10-08T13:46:03;15.00;1.00
19878;DHT22;10101;52.204;9.910;2023-10-08T13:48:32;15.00;99.90
19878;DHT22;10101;52.204;9.910;2023-10-08T13:51:01;14.90;1.00
19878;DHT22;10101;52.204;9.910;2023-10-08T13:53:30;15.00;99.90
19878;DHT22;10101;52.204;9.910;2023-10-08T13:55:58;15.10;99.90
19878;DHT22;10101;52.204;9.910;2023-10-08T13:58:26;15.10;99.90
19878;DHT22;10101;52.204;9.910;2023-10-08T14:00:54;15.10;1.00
19878;DHT22;10101;52.204;9.910;2023-10-08T14:03:21;15.30;1.00
19878;DHT22;10101;52.204;9.910;2023-10-08T14:05:48;15.40;99.90
19878;DHT22;10101;52.204;9.910;2023-10-08T14:08:17;15.50;99.90
19878;DHT22;10101;52.204;9.910;2023-10-08T14:10:45;15.70;99.90
19878;DHT22;10101;52.204;9.910;2023-10-08T14:13:14;15.70;99.90
19878;DHT22;10101;52.204;9.910;2023-10-08T14:15:45;15.80;1.00
19878;DHT22;10101;52.204;9.910;2023-10-08T14:18:14;16.10;99.90
19878;DHT22;10101;52.204;9.910;2023-10-08T14:20:44;16.40;99.90
19878;DHT22;10101;52.204;9.910;2023-10-08T14:23:12;16.30;99.90
19878;DHT22;10101;52.204;9.910;2023-10-08T14:25:43;15.80;1.00
19878;DHT22;10101;52.204;9.910;2023-10-08T14:28:11;15.80;1.00
19878;DHT22;10101;52.204;9.910;2023-10-08T14:30:48;16.00;1.00
19878;DHT22;10101;52.204;9.910;2023-10-08T14:33:19;16.30;1.00
19878;DHT22;10101;52.204;9.910;2023-10-08T14:35:50;18.20;1.00
19878;DHT22;10101;52.204;9.910;2023-10-08T14:38:34;19.80;1.00
19878;DHT22;10101;52.204;9.910;2023-10-08T14:41:19;21.30;1.00
19878;DHT22;10101;52.204;9.910;2023-10-08T14:44:04;21.50;1.00
19878;DHT22;10101;52.204;9.910;2023-10-08T14:46:32;18.80;1.00
19878;DHT22;10101;52.204;9.910;2023-10-08T14:49:03;18.60;1.00
19878;DHT22;10101;52.204;9.910;2023-10-08T14:51:36;19.70;1.00
19878;DHT22;10101;52.204;9.910;2023-10-08T14:54:02;20.40;1.00
19878;DHT22;10101;52.204;9.910;2023-10-08T14:56:30;20.20;1.00
19878;DHT22;10101;52.204;9.910;2023-10-08T14:58:58;19.80;1.00
19878;DHT22;10101;52.204;9.910;2023-10-08T15:01:25;20.50;1.00
19878;DHT22;10101;52.204;9.910;2023-10-08T15:03:53;20.00;1.00
19878;DHT22;10101;52.204;9.910;2023-10-08T15:06:20;19.20;1.00
19878;DHT22;10101;52.204;9.910;2023-10-08T15:08:48;18.30;1.00
19878;DHT22;10101;52.204;9.910;2023-10-08T15:11:15;18.20;1.00
19878;DHT22;10101;52.204;9.910;2023-10-08T15:13:43;17.50;1.00
19878;DHT22;10101;52.204;9.910;2023-10-08T15:16:11;16.90;1.00
19878;DHT22;10101;52.204;9.910;2023-10-08T15:18:39;16.50;1.00
19878;DHT22;10101;52.204;9.910;2023-10-08T15:21:08;16.40;1.00
19878;DHT22;10101;52.204;9.910;2023-10-08T15:23:35;16.40;99.90
19878;DHT22;10101;52.204;9.910;2023-10-08T15:26:03;16.10;1.00
19878;DHT22;10101;52.204;9.910;2023-10-08T15:28:30;15.90;1.00
19878;DHT22;10101;52.204;9.910;2023-10-08T15:30:59;15.70;99.90
19878;DHT22;10101;52.204;9.910;2023-10-08T15:33:25;15.60;99.90
19878;DHT22;10101;52.204;9.910;2023-10-08T15:35:52;15.50;99.90
19878;DHT22;10101;52.204;9.910;2023-10-08T15:38:19;15.50;99.90
19878;DHT22;10101;52.204;9.910;2023-10-08T15:40:46;15.40;99.90
19878;DHT22;10101;52.204;9.910;2023-10-08T15:43:14;15.50;57.90
19878;DHT22;10101;52.204;9.910;2023-10-08T15:45:41;15.40;99.90
19878;DHT22;10101;52.204;9.910;2023-10-08T15:48:11;15.30;99.90
19878;DHT22;10101;52.204;9.910;2023-10-08T15:50:38;15.20;1.00
19878;DHT22;10101;52.204;9.910;2023-10-08T15:53:05;15.20;1.00
19878;DHT22;10101;52.204;9.910;2023-10-08T15:55:32;14.90;99.90
19878;DHT22;10101;52.204;9.910;2023-10-08T15:57:59;14.80;1.00
19878;DHT22;10101;52.204;9.910;2023-10-08T16:00:25;14.80;99.90